Time;durP1;ratioP1;P1;durP2;ratioP2;P2;SDS_P1;SDS_P2;PMS_P1;PMS_P2;Temp;Humidity;BMP_temperature;BMP_pressure;BME280_temperature;BME280_humidity;BME280_pressure;Samples;Min_cycle;Max_cycle;Signal;HPM_P1;HPM_P2
2021/12/23 00:01:47;;;;;;;48.40;19.20;;;-5.80;99.90;;;;;;5029508;28;20428;-83
2021/12/23 00:04:13;;;;;;;42.50;19.30;;;-5.80;99.90;;;;;;5029301;28;20448;-83
2021/12/23 00:06:40;;;;;;;45.42;19.98;;;-5.80;99.90;;;;;;5013903;28;20182;-83
2021/12/23 00:09:06;;;;;;;50.33;18.23;;;-5.90;99.90;;;;;;5018819;28;20639;-83
2021/12/23 00:11:32;;;;;;;53.90;20.73;;;-5.90;99.90;;;;;;5034787;28;20178;-83
2021/12/23 00:14:03;;;;;;;53.72;21.83;;;-5.90;99.90;;;;;;5007349;28;20178;-82
2021/12/23 00:17:16;;;;;;;36.55;18.52;;;-5.90;99.90;;;;;;5014635;28;20190;-82
2021/12/23 00:19:35;;;;;;;48.42;19.63;;;-6.10;99.90;;;;;;5028639;28;20194;-82
2021/12/23 00:24:46;;;;;;;47.78;19.90;;;-6.10;99.90;;;;;;5033596;28;20266;-82
2021/12/23 00:27:12;;;;;;;46.17;20.40;;;-6.20;99.90;;;;;;5005921;28;20786;-82
2021/12/23 00:29:39;;;;;;;46.30;18.55;;;-6.10;99.90;;;;;;5021363;28;20578;-82
2021/12/23 00:32:07;;;;;;;62.20;20.90;;;-6.10;99.90;;;;;;5014384;28;20200;-82
2021/12/23 00:34:33;;;;;;;58.78;20.27;;;-6.10;99.90;;;;;;5031419;28;20188;-82
2021/12/23 00:37:00;;;;;;;50.77;19.67;;;-6.00;99.90;;;;;;5031861;28;20186;-83
2021/12/23 00:39:26;;;;;;;66.15;22.60;;;-5.90;99.90;;;;;;5014846;28;20789;-83
2021/12/23 00:41:54;;;;;;;49.33;19.52;;;-5.90;99.90;;;;;;5016184;28;20185;-83
2021/12/23 00:44:20;;;;;;;53.47;19.10;;;-5.90;99.90;;;;;;5014541;28;20185;-83
2021/12/23 00:46:46;;;;;;;56.67;21.00;;;-5.90;99.90;;;;;;5034224;28;20181;-84
2021/12/23 00:49:11;;;;;;;66.30;23.10;;;-5.90;99.90;;;;;;5031604;28;20255;-84
2021/12/23 00:51:37;;;;;;;56.97;21.97;;;-5.90;99.90;;;;;;5035027;28;20192;-83
2021/12/23 00:54:06;;;;;;;58.53;22.77;;;-5.90;99.90;;;;;;5033299;28;20186;-82
2021/12/23 00:56:33;;;;;;;52.47;19.90;;;-6.00;99.90;;;;;;5029996;28;20286;-83
2021/12/23 00:58:59;;;;;;;51.20;22.95;;;-5.70;99.90;;;;;;5014888;28;20211;-82
2021/12/23 01:01:25;;;;;;;44.55;18.00;;;-5.70;99.90;;;;;;5015028;28;20193;-82
2021/12/23 01:03:51;;;;;;;51.00;18.50;;;-5.80;99.90;;;;;;5017044;28;20975;-82
2021/12/23 01:06:16;;;;;;;57.37;20.80;;;-5.80;99.90;;;;;;5015658;28;20182;-83
2021/12/23 01:08:42;;;;;;;66.10;21.70;;;-5.90;99.90;;;;;;5013651;28;20169;-83
2021/12/23 01:11:09;;;;;;;51.30;21.00;;;-6.00;99.90;;;;;;5021692;28;20201;-82
2021/12/23 01:13:37;;;;;;;63.45;22.38;;;-6.00;99.90;;;;;;5036305;28;20201;-82
2021/12/23 01:18:33;;;;;;;60.17;22.37;;;-5.80;99.90;;;;;;5035820;28;20268;-81
2021/12/23 01:21:16;;;;;;;65.20;23.50;;;-5.60;99.90;;;;;;5020193;28;20198;-83
2021/12/23 01:23:44;;;;;;;62.08;23.60;;;-5.50;99.90;;;;;;5019885;28;20208;-83
2021/12/23 01:26:10;;;;;;;57.83;23.65;;;-5.30;99.90;;;;;;5021010;28;20193;-83
2021/12/23 01:28:36;;;;;;;54.20;22.55;;;-5.40;99.90;;;;;;5022141;28;20173;-83
2021/12/23 01:31:02;;;;;;;58.73;24.50;;;-5.40;99.90;;;;;;5034676;28;20566;-83
2021/12/23 01:33:27;;;;;;;61.63;25.30;;;-5.40;99.90;;;;;;5018454;28;20204;-84
2021/12/23 01:35:53;;;;;;;56.07;24.20;;;-5.40;99.90;;;;;;5016428;28;20198;-83
2021/12/23 01:38:18;;;;;;;60.40;23.70;;;-5.30;99.90;;;;;;5017816;28;20170;-84
2021/12/23 01:40:46;;;;;;;61.77;22.40;;;-5.40;99.90;;;;;;5036480;28;20214;-83
2021/12/23 01:43:12;;;;;;;63.70;25.02;;;-5.30;99.90;;;;;;5035469;28;20245;-85
2021/12/23 01:45:46;;;;;;;54.17;24.73;;;-5.30;99.90;;;;;;5019808;28;21059;-83
2021/12/23 01:48:13;;;;;;;64.20;24.10;;;-5.30;99.90;;;;;;5039734;28;20174;-85
2021/12/23 01:50:39;;;;;;;62.97;24.30;;;-5.10;99.90;;;;;;5019767;28;20213;-85
2021/12/23 01:53:06;;;;;;;60.63;23.50;;;-4.90;99.90;;;;;;5009076;28;20180;-85
2021/12/23 01:55:31;;;;;;;60.42;21.50;;;-4.80;99.90;;;;;;5024200;28;20205;-84
2021/12/23 01:57:57;;;;;;;68.87;23.63;;;-4.60;99.90;;;;;;5039565;28;20182;-84
2021/12/23 02:00:26;;;;;;;62.70;23.88;;;-4.50;99.90;;;;;;5034753;28;20216;-85
2021/12/23 02:02:53;;;;;;;65.90;24.00;;;-4.40;99.90;;;;;;5016519;28;21344;-84
2021/12/23 02:05:20;;;;;;;62.78;27.58;;;-4.40;99.90;;;;;;5016310;28;20205;-84
2021/12/23 02:07:45;;;;;;;61.78;25.08;;;-4.70;99.90;;;;;;5035361;28;20205;-84
2021/12/23 02:10:11;;;;;;;53.47;24.73;;;-4.90;99.90;;;;;;5019142;28;20214;-84
2021/12/23 02:12:37;;;;;;;65.73;25.90;;;-5.10;99.90;;;;;;5020322;28;20189;-84
2021/12/23 02:15:04;;;;;;;51.42;23.48;;;-5.20;99.90;;;;;;5014124;28;20186;-84
2021/12/23 02:17:33;;;;;;;57.75;23.63;;;-5.30;99.90;;;;;;5021722;28;20178;-84
2021/12/23 02:19:59;;;;;;;63.67;26.20;;;-5.30;99.90;;;;;;5037821;28;20315;-85
2021/12/23 02:22:24;;;;;;;52.10;22.93;;;-5.40;99.90;;;;;;5021491;28;20282;-85
2021/12/23 02:24:50;;;;;;;53.90;20.20;;;-5.40;99.90;;;;;;5017107;28;20190;-84
2021/12/23 02:27:15;;;;;;;48.83;21.47;;;-5.40;99.90;;;;;;5023117;28;20273;-83
2021/12/23 02:29:41;;;;;;;55.63;23.37;;;-5.40;99.90;;;;;;5034980;28;20210;-82
2021/12/23 02:32:07;;;;;;;54.00;21.43;;;-5.40;99.90;;;;;;5017382;28;20269;-83
2021/12/23 02:34:32;;;;;;;63.75;25.52;;;-5.30;99.90;;;;;;5034001;28;20182;-83
2021/12/23 02:36:59;;;;;;;67.27;26.00;;;-5.30;99.90;;;;;;5037336;28;20276;-83
2021/12/23 02:39:27;;;;;;;60.85;24.95;;;-5.30;99.90;;;;;;5036814;28;20205;-83
2021/12/23 02:41:53;;;;;;;69.35;25.05;;;-5.30;99.90;;;;;;5036866;28;20190;-83
2021/12/23 02:44:19;;;;;;;67.38;26.23;;;-5.20;99.90;;;;;;5017405;28;20186;-83
2021/12/23 02:46:45;;;;;;;51.80;23.80;;;-5.00;99.90;;;;;;5033754;28;20193;-83
2021/12/23 02:49:11;;;;;;;55.20;21.37;;;-4.80;99.90;;;;;;5034958;28;20244;-84
2021/12/23 02:51:37;;;;;;;61.40;23.53;;;-4.80;99.90;;;;;;5018488;28;20429;-83
2021/12/23 02:54:03;;;;;;;69.50;24.90;;;-4.80;99.90;;;;;;5020540;28;20177;-84
2021/12/23 02:56:29;;;;;;;65.80;24.13;;;-4.70;99.90;;;;;;5036784;28;20186;-84
2021/12/23 02:58:54;;;;;;;63.27;23.50;;;-4.80;99.90;;;;;;5016737;28;20197;-84
2021/12/23 03:01:22;;;;;;;56.30;24.10;;;-4.70;99.90;;;;;;5016491;28;20483;-84
2021/12/23 03:03:48;;;;;;;55.55;24.13;;;-4.70;99.90;;;;;;5033887;28;20200;-83
2021/12/23 03:06:18;;;;;;;52.80;23.90;;;-4.60;99.90;;;;;;5035651;28;20193;-84
2021/12/23 03:08:47;;;;;;;52.05;23.60;;;-4.50;99.90;;;;;;5036195;28;20178;-84
2021/12/23 03:11:17;;;;;;;55.90;24.20;;;-4.50;99.90;;;;;;5039715;28;20272;-84
2021/12/23 03:13:43;;;;;;;60.13;24.38;;;-4.60;99.90;;;;;;5021771;28;20890;-84
2021/12/23 03:16:13;;;;;;;61.60;26.17;;;-4.70;99.90;;;;;;5016898;28;20182;-84
2021/12/23 03:18:39;;;;;;;60.53;24.23;;;-4.80;99.90;;;;;;5036768;28;20200;-84
2021/12/23 03:21:06;;;;;;;61.10;23.27;;;-4.80;99.90;;;;;;5031621;28;20240;-83
2021/12/23 03:23:32;;;;;;;51.08;25.10;;;-4.80;99.90;;;;;;5017771;28;20185;-83
2021/12/23 03:25:58;;;;;;;53.65;21.63;;;-4.70;99.90;;;;;;5018556;28;20186;-84
2021/12/23 03:28:24;;;;;;;52.75;22.85;;;-4.70;99.90;;;;;;5017445;28;20191;-84
2021/12/23 03:30:50;;;;;;;63.57;24.27;;;-4.60;99.90;;;;;;5016675;28;20213;-84
2021/12/23 03:33:16;;;;;;;53.00;21.30;;;-4.60;99.90;;;;;;5013081;28;20182;-83
2021/12/23 03:35:41;;;;;;;50.63;22.60;;;-4.70;99.90;;;;;;5015618;28;20210;-85
2021/12/23 03:38:08;;;;;;;53.57;23.60;;;-4.90;99.90;;;;;;5019788;28;20249;-83
2021/12/23 03:40:33;;;;;;;49.65;21.92;;;-4.90;99.90;;;;;;5035145;28;20198;-84
2021/12/23 03:42:59;;;;;;;56.33;23.47;;;-4.90;99.90;;;;;;5030522;28;20838;-86
2021/12/23 03:45:25;;;;;;;52.90;20.10;;;-4.90;99.90;;;;;;5033238;28;20475;-86
2021/12/23 03:47:51;;;;;;;53.77;22.90;;;-4.80;99.90;;;;;;5016414;28;20213;-85
2021/12/23 03:50:19;;;;;;;67.30;25.43;;;-4.70;99.90;;;;;;5007319;28;21193;-84
2021/12/23 03:52:45;;;;;;;60.03;24.83;;;-4.70;99.90;;;;;;5015086;28;21957;-84
2021/12/23 03:55:12;;;;;;;50.60;22.20;;;-4.60;99.90;;;;;;5028900;28;20181;-84
2021/12/23 03:57:38;;;;;;;69.45;26.17;;;-4.60;99.90;;;;;;5029166;28;20181;-85
2021/12/23 04:00:07;;;;;;;64.70;25.10;;;-4.70;99.90;;;;;;5014803;28;20217;-85
2021/12/23 04:02:33;;;;;;;52.45;23.05;;;-4.80;99.90;;;;;;5013641;28;20193;-84
2021/12/23 04:04:58;;;;;;;61.40;25.43;;;-4.80;99.90;;;;;;5006029;28;20193;-85
2021/12/23 04:07:24;;;;;;;63.23;23.20;;;-4.80;99.90;;;;;;5030332;28;20451;-84
2021/12/23 04:09:49;;;;;;;62.87;25.10;;;-4.70;99.90;;;;;;5017893;28;20674;-85
2021/12/23 04:12:15;;;;;;;61.47;22.47;;;-4.60;99.90;;;;;;5015941;28;21196;-85
2021/12/23 04:14:40;;;;;;;52.17;23.70;;;-4.60;99.90;;;;;;5018322;28;20192;-86
2021/12/23 04:17:06;;;;;;;59.27;22.30;;;-4.50;99.90;;;;;;5034622;28;20919;-84
2021/12/23 04:19:32;;;;;;;51.27;24.30;;;-4.40;99.90;;;;;;5016786;28;20674;-86
2021/12/23 04:21:59;;;;;;;56.67;24.48;;;-4.40;99.90;;;;;;5014926;28;20196;-85
2021/12/23 04:24:25;;;;;;;62.17;25.85;;;-4.30;99.90;;;;;;5014508;28;20181;-85
2021/12/23 04:26:51;;;;;;;67.30;21.83;;;-4.30;99.90;;;;;;5016966;28;20190;-86
2021/12/23 04:29:17;;;;;;;59.87;25.10;;;-4.30;99.90;;;;;;5035465;28;20468;-86
2021/12/23 04:31:43;;;;;;;69.22;24.77;;;-4.30;99.90;;;;;;5036892;28;20466;-85
2021/12/23 04:34:08;;;;;;;57.87;22.27;;;-4.30;99.90;;;;;;5016807;28;20588;-85
2021/12/23 04:36:34;;;;;;;56.87;25.67;;;-4.30;99.90;;;;;;5032680;28;20440;-85
2021/12/23 04:39:00;;;;;;;57.20;22.97;;;-4.40;99.90;;;;;;5017551;28;20257;-85
2021/12/23 04:41:27;;;;;;;50.60;21.67;;;-4.30;99.90;;;;;;5018599;28;20186;-85
2021/12/23 04:43:54;;;;;;;54.92;25.10;;;-4.20;99.90;;;;;;5035110;28;20575;-85
2021/12/23 04:46:19;;;;;;;69.40;27.75;;;-4.10;99.90;;;;;;5036991;28;20214;-84
2021/12/23 04:48:45;;;;;;;54.60;24.83;;;-4.10;99.90;;;;;;5033212;28;20189;-85
2021/12/23 04:51:12;;;;;;;58.80;23.60;;;-4.10;99.90;;;;;;5037191;28;20284;-85
2021/12/23 04:53:38;;;;;;;53.42;23.60;;;-4.20;99.90;;;;;;5020483;28;20213;-85
2021/12/23 04:56:04;;;;;;;69.70;25.97;;;-4.20;99.90;;;;;;5021574;28;20564;-84
2021/12/23 04:58:30;;;;;;;46.08;22.35;;;-4.20;99.90;;;;;;5025270;28;20670;-85
2021/12/23 05:00:55;;;;;;;57.60;24.50;;;-4.20;99.90;;;;;;5023067;28;20201;-85
2021/12/23 05:03:23;;;;;;;64.30;24.60;;;-4.30;99.90;;;;;;5022459;28;20212;-85
2021/12/23 05:05:49;;;;;;;54.33;25.25;;;-4.30;99.90;;;;;;5036680;28;20283;-85
2021/12/23 05:08:16;;;;;;;60.63;26.60;;;-4.30;99.90;;;;;;5035615;28;20196;-84
2021/12/23 05:10:42;;;;;;;46.35;22.05;;;-4.20;99.90;;;;;;5017409;28;20218;-84
2021/12/23 05:13:08;;;;;;;52.85;21.33;;;-4.10;99.90;;;;;;5032644;28;20185;-85
2021/12/23 05:15:34;;;;;;;58.60;27.13;;;-4.10;99.90;;;;;;5011580;28;20181;-85
2021/12/23 05:18:00;;;;;;;53.60;23.57;;;-4.20;99.90;;;;;;5021548;28;20180;-85
2021/12/23 05:20:26;;;;;;;60.77;25.70;;;-4.30;99.90;;;;;;5036902;28;20448;-85
2021/12/23 05:22:52;;;;;;;52.20;25.42;;;-4.30;99.90;;;;;;5036060;28;20440;-85
2021/12/23 05:25:18;;;;;;;59.50;23.67;;;-4.30;99.90;;;;;;5021638;28;20185;-85
2021/12/23 05:27:44;;;;;;;48.25;22.08;;;-4.30;99.90;;;;;;5036779;28;20182;-85
2021/12/23 05:30:14;;;;;;;52.13;22.70;;;-4.40;99.90;;;;;;5021361;28;20210;-86
2021/12/23 05:32:42;;;;;;;54.53;23.65;;;-4.30;99.90;;;;;;5016136;28;20265;-81
2021/12/23 05:35:09;;;;;;;71.45;31.90;;;-4.50;99.90;;;;;;5038656;28;20146;-81
2021/12/23 05:37:35;;;;;;;61.95;25.80;;;-4.50;99.90;;;;;;5038480;28;20181;-81
2021/12/23 05:40:00;;;;;;;58.05;23.20;;;-4.50;99.90;;;;;;5035265;28;20717;-81
2021/12/23 05:42:26;;;;;;;58.13;25.60;;;-4.50;99.90;;;;;;5035487;28;20194;-81
2021/12/23 05:44:51;;;;;;;65.00;24.70;;;-4.40;99.90;;;;;;5034407;28;20597;-81
2021/12/23 05:47:17;;;;;;;60.33;24.83;;;-4.40;99.90;;;;;;5020664;28;20170;-81
2021/12/23 05:49:42;;;;;;;61.20;24.00;;;-4.40;99.90;;;;;;5035086;28;20267;-81
2021/12/23 05:52:08;;;;;;;49.00;20.87;;;-4.40;99.90;;;;;;5021264;28;20182;-82
2021/12/23 05:54:33;;;;;;;47.50;20.67;;;-4.50;99.90;;;;;;5021466;28;20190;-81
2021/12/23 05:57:02;;;;;;;58.73;21.90;;;-4.50;99.90;;;;;;5037345;28;20261;-82
2021/12/23 05:59:29;;;;;;;55.25;22.65;;;-4.50;99.90;;;;;;5036903;28;20197;-82
2021/12/23 06:01:55;;;;;;;55.90;23.33;;;-4.50;99.90;;;;;;5035992;28;20197;-82
2021/12/23 06:04:21;;;;;;;50.25;22.42;;;-4.60;99.90;;;;;;5018633;28;20698;-82
2021/12/23 06:06:46;;;;;;;66.80;25.30;;;-4.60;99.90;;;;;;5020627;28;20186;-82
2021/12/23 06:09:12;;;;;;;50.53;21.23;;;-4.50;99.90;;;;;;5019148;28;20655;-82
2021/12/23 06:11:38;;;;;;;55.63;22.87;;;-4.50;99.90;;;;;;5018866;28;20174;-82
2021/12/23 06:14:03;;;;;;;55.90;24.50;;;-4.50;99.90;;;;;;5021384;28;20182;-82
2021/12/23 06:16:29;;;;;;;50.13;22.60;;;-4.50;99.90;;;;;;5037653;28;20229;-82
2021/12/23 06:18:55;;;;;;;51.75;20.38;;;-4.60;99.90;;;;;;5018327;28;20194;-82
2021/12/23 06:21:22;;;;;;;39.77;19.83;;;-4.60;99.90;;;;;;5038737;28;20208;-82
2021/12/23 06:23:47;;;;;;;53.58;20.52;;;-4.70;99.90;;;;;;5019378;28;20186;-82
2021/12/23 06:26:13;;;;;;;58.73;22.77;;;-4.70;99.90;;;;;;5021595;28;20673;-82
2021/12/23 06:28:39;;;;;;;56.20;21.37;;;-4.70;99.90;;;;;;5039969;28;20181;-82
2021/12/23 06:31:04;;;;;;;62.83;22.60;;;-4.70;99.90;;;;;;5022610;28;20267;-82
2021/12/23 06:33:30;;;;;;;60.43;22.47;;;-4.50;99.90;;;;;;5020959;28;21152;-81
2021/12/23 06:35:55;;;;;;;61.80;21.53;;;-4.30;99.90;;;;;;5015485;28;20237;-81
2021/12/23 06:38:21;;;;;;;49.10;22.83;;;-4.20;99.90;;;;;;5015609;28;20196;-81
2021/12/23 06:40:47;;;;;;;63.80;23.97;;;-4.20;99.90;;;;;;5035946;28;20297;-81
2021/12/23 06:43:12;;;;;;;55.00;21.50;;;-4.20;99.90;;;;;;5032204;28;20213;-81
2021/12/23 06:45:38;;;;;;;54.10;20.97;;;-4.20;99.90;;;;;;5034283;28;20182;-82
2021/12/23 06:48:03;;;;;;;60.17;22.87;;;-4.20;99.90;;;;;;5020794;28;20188;-82
2021/12/23 06:50:29;;;;;;;49.17;22.07;;;-4.30;99.90;;;;;;5035962;28;20220;-82
2021/12/23 06:52:55;;;;;;;56.20;24.07;;;-4.40;99.90;;;;;;5036940;28;21095;-82
2021/12/23 06:55:21;;;;;;;65.87;24.90;;;-4.40;99.90;;;;;;5016186;28;20531;-83
2021/12/23 06:57:52;;;;;;;60.37;24.13;;;-4.40;99.90;;;;;;5034257;28;20182;-80
2021/12/23 07:00:18;;;;;;;61.42;23.52;;;-4.50;99.90;;;;;;5031569;28;20216;-80
2021/12/23 07:02:44;;;;;;;48.97;22.60;;;-4.50;99.90;;;;;;5030519;28;20196;-82
2021/12/23 07:05:11;;;;;;;49.40;22.40;;;-4.50;99.90;;;;;;5019617;28;20182;-82
2021/12/23 07:07:53;;;;;;;50.60;24.67;;;-4.50;99.90;;;;;;5035291;28;20243;-83
2021/12/23 07:10:27;;;;;;;56.63;23.42;;;-4.40;99.90;;;;;;5015077;28;20211;-85
2021/12/23 07:12:54;;;;;;;53.83;22.55;;;-4.40;99.90;;;;;;5036821;28;20182;-85
2021/12/23 07:15:19;;;;;;;50.33;24.02;;;-4.30;99.90;;;;;;5019390;28;20181;-84
2021/12/23 07:17:45;;;;;;;62.80;25.43;;;-4.20;99.90;;;;;;5036927;28;20174;-81
2021/12/23 07:20:11;;;;;;;62.30;27.85;;;-4.00;99.90;;;;;;5033798;28;20217;-83
2021/12/23 07:22:37;;;;;;;54.63;26.83;;;-4.00;99.90;;;;;;5033705;28;20181;-84
2021/12/23 07:25:04;;;;;;;56.53;26.60;;;-4.10;99.90;;;;;;5031044;28;20193;-83
2021/12/23 07:27:29;;;;;;;56.35;24.30;;;-4.20;99.90;;;;;;5019501;28;20833;-82
2021/12/23 07:29:55;;;;;;;57.77;22.27;;;-4.30;99.90;;;;;;5015646;28;20344;-82
2021/12/23 07:32:21;;;;;;;56.43;26.53;;;-4.40;99.90;;;;;;5017269;28;20174;-81
2021/12/23 07:34:46;;;;;;;69.17;29.37;;;-4.30;99.90;;;;;;5032572;28;20959;-80
2021/12/23 07:37:12;;;;;;;71.87;29.87;;;-4.20;99.90;;;;;;5033690;28;20188;-83
2021/12/23 07:39:39;;;;;;;63.63;27.10;;;-4.30;99.90;;;;;;5018109;28;20678;-82
2021/12/23 07:42:06;;;;;;;58.65;25.08;;;-4.30;99.90;;;;;;5016732;28;20189;-81
2021/12/23 07:44:32;;;;;;;71.90;31.42;;;;;;;;;;5030160;28;20800;-82
2021/12/23 07:46:58;;;;;;;59.58;27.23;;;-4.30;99.90;;;;;;5034125;28;20212;-82
2021/12/23 07:49:24;;;;;;;83.67;36.97;;;-4.20;99.90;;;;;;5036571;28;20202;-81
2021/12/23 07:51:50;;;;;;;59.42;25.25;;;-4.10;99.90;;;;;;5038440;28;20215;-81
2021/12/23 07:54:15;;;;;;;58.23;24.60;;;-4.00;99.90;;;;;;5035923;28;20633;-81
2021/12/23 07:56:41;;;;;;;46.77;22.03;;;-3.80;99.90;;;;;;5018243;28;20212;-84
2021/12/23 07:59:07;;;;;;;53.23;22.30;;;-3.50;99.90;;;;;;5033445;28;20181;-81
2021/12/23 08:01:32;;;;;;;44.90;19.53;;;-3.30;99.90;;;;;;5033911;28;20211;-82
2021/12/23 08:03:58;;;;;;;41.43;18.53;;;-3.30;99.90;;;;;;5032179;28;20324;-82
2021/12/23 08:06:24;;;;;;;47.70;22.13;;;-3.00;99.90;;;;;;5017669;28;20189;-81
2021/12/23 08:08:49;;;;;;;61.00;24.17;;;-2.80;99.90;;;;;;5031745;28;20188;-82
2021/12/23 08:11:15;;;;;;;49.77;23.57;;;-2.60;99.90;;;;;;5026502;28;20217;-80
2021/12/23 08:13:41;;;;;;;58.57;24.30;;;-2.40;99.90;;;;;;5026847;28;20191;-79
2021/12/23 08:16:06;;;;;;;56.83;25.77;;;-2.30;99.90;;;;;;5028757;28;20440;-80
2021/12/23 08:18:32;;;;;;;57.27;25.63;;;-2.30;99.90;;;;;;5028487;28;20433;-81
2021/12/23 08:20:59;;;;;;;48.85;23.90;;;-2.30;99.90;;;;;;5027692;28;20468;-80
2021/12/23 08:23:26;;;;;;;48.65;24.13;;;-2.00;99.90;;;;;;5032247;28;20264;-82
2021/12/23 08:25:52;;;;;;;50.03;23.13;;;-1.60;99.90;;;;;;5026995;28;20182;-82
2021/12/23 08:28:17;;;;;;;51.03;21.85;;;-1.70;99.90;;;;;;5026949;28;21016;-81
2021/12/23 08:30:43;;;;;;;56.00;23.50;;;-1.50;99.90;;;;;;5008512;28;20297;-82
2021/12/23 08:33:09;;;;;;;51.00;22.50;;;-1.40;99.90;;;;;;5015306;28;20177;-82
2021/12/23 08:35:36;;;;;;;45.28;23.20;;;-1.60;99.90;;;;;;5015180;28;20174;-81
2021/12/23 08:38:03;;;;;;;52.10;23.75;;;-1.80;99.90;;;;;;5031637;28;20224;-84
2021/12/23 08:40:29;;;;;;;47.95;22.05;;;-1.90;99.90;;;;;;5028605;28;20220;-84
2021/12/23 08:42:56;;;;;;;46.33;23.35;;;-1.90;99.90;;;;;;5025704;28;20192;-81
2021/12/23 08:45:24;;;;;;;66.93;27.77;;;-1.80;99.90;;;;;;5009382;28;20193;-82
2021/12/23 08:47:51;;;;;;;81.72;29.98;;;-1.80;99.90;;;;;;5010493;28;20673;-82
2021/12/23 08:50:18;;;;;;;61.33;30.42;;;-1.70;99.90;;;;;;5011640;28;21053;-81
2021/12/23 08:52:44;;;;;;;62.70;28.75;;;-1.20;99.90;;;;;;5028208;28;20182;-82
2021/12/23 08:55:11;;;;;;;57.17;25.97;;;-0.60;99.90;;;;;;5032177;28;20206;-81
2021/12/23 08:57:37;;;;;;;54.78;24.38;;;-0.20;99.90;;;;;;5026088;28;20463;-82
2021/12/23 09:00:06;;;;;;;50.88;26.17;;;-0.50;99.90;;;;;;5016323;28;20783;-82
2021/12/23 09:02:32;;;;;;;49.22;25.63;;;-0.70;99.90;;;;;;5025197;28;20201;-81
2021/12/23 09:04:57;;;;;;;57.13;26.20;;;-1.00;99.90;;;;;;5029249;28;20196;-81
2021/12/23 09:07:23;;;;;;;58.60;26.80;;;-1.20;99.90;;;;;;5014138;28;20192;-82
2021/12/23 09:09:51;;;;;;;57.00;25.80;;;-1.20;99.90;;;;;;5032291;28;20213;-82
2021/12/23 09:12:17;;;;;;;58.50;28.52;;;-0.60;99.90;;;;;;5025808;28;21061;-82
2021/12/23 09:14:43;;;;;;;54.85;27.38;;;-0.60;99.90;;;;;;5025826;28;20205;-82
2021/12/23 09:17:10;;;;;;;52.17;26.90;;;-0.30;99.90;;;;;;5029167;28;20178;-82
2021/12/23 09:19:35;;;;;;;49.78;26.48;;;-0.40;99.90;;;;;;5014760;28;20212;-80
2021/12/23 09:22:02;;;;;;;46.70;23.63;;;-0.40;99.90;;;;;;5030657;28;20213;-82
2021/12/23 09:24:28;;;;;;;55.70;27.83;;;-0.50;99.90;;;;;;5034830;28;20213;-85
2021/12/23 09:27:01;;;;;;;63.58;27.67;;;-0.80;99.90;;;;;;5032192;28;20232;-83
2021/12/23 09:34:48;;;;;;;56.78;24.88;;;-1.40;99.90;;;;;;5032537;28;20185;-81
2021/12/23 09:37:15;;;;;;;55.13;26.03;;;-1.30;99.90;;;;;;5003205;28;20190;-82
2021/12/23 09:39:40;;;;;;;57.53;26.73;;;-1.20;99.90;;;;;;5020907;28;20216;-83
2021/12/23 09:42:06;;;;;;;48.37;22.37;;;-1.00;99.90;;;;;;5035307;28;20658;-81
2021/12/23 09:44:32;;;;;;;50.70;26.40;;;-0.70;99.90;;;;;;5032488;28;20185;-80
2021/12/23 09:47:02;;;;;;;55.55;26.58;;;-0.50;99.90;;;;;;5030341;28;20193;-81
2021/12/23 09:49:30;;;;;;;54.90;26.13;;;-0.20;99.90;;;;;;5033982;28;20213;-80
2021/12/23 09:51:56;;;;;;;57.95;28.50;;;0.00;99.90;;;;;;5032074;28;20189;-80
2021/12/23 09:54:27;;;;;;;61.45;26.38;;;0.20;99.90;;;;;;5015962;28;20170;-80
2021/12/23 09:56:53;;;;;;;56.22;28.48;;;0.10;99.90;;;;;;5032320;28;20178;-80
2021/12/23 09:59:21;;;;;;;49.83;26.73;;;0.00;99.90;;;;;;5028675;28;20676;-81
2021/12/23 10:01:47;;;;;;;56.60;26.30;;;0.00;99.90;;;;;;5005240;28;20192;-80
2021/12/23 10:04:12;;;;;;;44.70;22.45;;;0.00;99.90;;;;;;5027719;28;20186;-80
2021/12/23 10:06:38;;;;;;;49.83;23.20;;;0.00;99.90;;;;;;5028824;28;20181;-83
2021/12/23 10:09:04;;;;;;;48.30;25.02;;;0.40;99.90;;;;;;5025878;28;20522;-81
2021/12/23 10:38:32;;;;;;;48.45;25.40;;;1.10;99.90;;;;;;5024216;28;20269;-83
2021/12/23 10:41:13;;;;;;;50.08;23.80;;;1.10;99.90;;;;;;4998743;28;20197;-81
2021/12/23 10:43:42;;;;;;;57.35;25.30;;;1.30;99.90;;;;;;5007596;28;20595;-81
2021/12/23 10:46:15;;;;;;;65.78;29.38;;;1.60;99.90;;;;;;5023029;28;20271;-81
2021/12/23 10:49:05;;;;;;;57.58;28.27;;;1.80;99.90;;;;;;5014032;28;20194;-81
2021/12/23 10:52:09;;;;;;;50.85;27.13;;;1.70;99.90;;;;;;5026541;28;20177;-81
2021/12/23 11:00:23;;;;;;;46.22;22.42;;;1.40;99.90;;;;;;5035646;28;20223;-82
2021/12/23 11:03:11;;;;;;;50.28;24.52;;;1.40;99.90;;;;;;5028524;28;20743;-82
2021/12/23 11:05:46;;;;;;;53.83;23.60;;;1.10;99.90;;;;;;5033730;28;20170;-82
2021/12/23 11:08:24;;;;;;;50.65;24.85;;;1.10;99.90;;;;;;5013879;28;20178;-81
2021/12/23 11:28:03;;;;;;;43.28;22.73;;;1.90;99.90;;;;;;5034155;28;20180;-82
2021/12/23 11:43:54;;;;;;;44.90;21.65;;;1.90;99.90;;;;;;5031765;28;20173;-81
2021/12/23 11:46:25;;;;;;;54.17;24.23;;;2.00;99.90;;;;;;5032759;28;20178;-81
2021/12/23 11:48:54;;;;;;;49.03;24.02;;;2.10;99.90;;;;;;5028219;28;20209;-81
2021/12/23 11:51:29;;;;;;;64.13;23.27;;;2.20;99.90;;;;;;5027688;28;20236;-81
2021/12/23 11:53:55;;;;;;;44.90;22.38;;;2.50;99.90;;;;;;5031186;28;20232;-80
2021/12/23 11:56:22;;;;;;;51.83;26.13;;;2.80;99.90;;;;;;5006527;28;20178;-81
2021/12/23 11:58:49;;;;;;;51.70;24.17;;;2.90;99.90;;;;;;5021898;28;20489;-81
2021/12/23 12:01:18;;;;;;;50.40;25.02;;;2.80;99.90;;;;;;5030853;28;20213;-81
2021/12/23 12:04:05;;;;;;;58.08;25.20;;;2.90;99.90;;;;;;5032354;28;20250;-80
2021/12/23 12:06:38;;;;;;;46.58;22.60;;;2.70;99.90;;;;;;5029751;28;20544;-81
2021/12/23 12:09:13;;;;;;;46.95;23.83;;;2.30;99.90;;;;;;5029877;28;20189;-81
2021/12/23 12:11:41;;;;;;;48.13;23.30;;;2.30;99.90;;;;;;5014624;28;20177;-81
2021/12/23 12:14:40;;;;;;;50.13;24.85;;;2.20;99.90;;;;;;5029439;28;20480;-82
2021/12/23 12:17:24;;;;;;;52.38;24.77;;;2.20;99.90;;;;;;5030455;28;20186;-81
2021/12/23 12:20:26;;;;;;;46.25;24.58;;;2.00;99.90;;;;;;5030074;28;20197;-81
2021/12/23 12:22:58;;;;;;;42.83;19.92;;;1.80;99.90;;;;;;5030217;28;20188;-81
2021/12/23 12:25:23;;;;;;;46.03;23.08;;;1.90;99.90;;;;;;5029222;28;20205;-80
2021/12/23 12:27:55;;;;;;;42.93;22.40;;;2.00;99.90;;;;;;5031444;28;20208;-81
2021/12/23 12:30:51;;;;;;;46.15;23.85;;;1.80;99.90;;;;;;5010161;28;20301;-82
2021/12/23 12:33:25;;;;;;;39.60;23.25;;;1.90;99.90;;;;;;5034224;28;20185;-81
2021/12/23 12:36:00;;;;;;;52.85;23.27;;;2.10;99.90;;;;;;5032826;28;20197;-82
2021/12/23 12:38:28;;;;;;;46.53;25.02;;;2.30;99.90;;;;;;5033571;28;20169;-81
2021/12/23 12:41:20;;;;;;;49.03;24.23;;;2.50;99.90;;;;;;5033429;28;20201;-81
2021/12/23 12:44:03;;;;;;;51.20;24.38;;;2.50;99.90;;;;;;5030875;28;20177;-81
2021/12/23 12:46:35;;;;;;;46.33;21.30;;;2.40;99.90;;;;;;5033756;28;20174;-81
2021/12/23 12:49:18;;;;;;;47.92;22.08;;;2.40;99.90;;;;;;5032385;28;20182;-82
2021/12/23 12:51:46;;;;;;;52.83;24.60;;;2.10;99.90;;;;;;5006726;28;20189;-81
2021/12/23 12:54:17;;;;;;;43.03;22.65;;;1.90;99.90;;;;;;5029596;28;20172;-81
2021/12/23 12:56:49;;;;;;;47.55;22.42;;;1.60;99.90;;;;;;5030020;28;20955;-81
2021/12/23 12:59:17;;;;;;;46.75;23.25;;;1.60;99.90;;;;;;5023323;28;20205;-81
2021/12/23 13:01:47;;;;;;;49.65;23.73;;;1.70;99.90;;;;;;5015725;28;20272;-81
2021/12/23 13:04:30;;;;;;;52.92;23.45;;;1.70;99.90;;;;;;5009678;28;20204;-81
2021/12/23 13:06:59;;;;;;;48.30;23.95;;;1.60;99.90;;;;;;5035246;28;20162;-81
2021/12/23 13:09:36;;;;;;;50.25;23.92;;;1.30;99.90;;;;;;5034739;28;20221;-81
2021/12/23 13:12:04;;;;;;;50.92;23.50;;;1.20;99.90;;;;;;5018994;28;20232;-81
2021/12/23 13:15:15;;;;;;;54.22;23.25;;;1.10;99.90;;;;;;5036352;28;20193;-81
2021/12/23 13:17:56;;;;;;;47.92;22.50;;;1.10;99.90;;;;;;5033573;28;20269;-81
2021/12/23 13:20:39;;;;;;;55.67;22.90;;;1.10;99.90;;;;;;5023437;28;20723;-82
2021/12/23 13:23:15;;;;;;;47.67;23.98;;;1.30;99.90;;;;;;5033489;28;20402;-81
2021/12/23 13:25:53;;;;;;;50.95;23.30;;;1.40;99.90;;;;;;5018865;28;20188;-81
2021/12/23 13:28:40;;;;;;;51.00;25.00;;;1.60;99.90;;;;;;5033928;28;20176;-81
2021/12/23 13:31:07;;;;;;;49.42;22.45;;;1.60;99.90;;;;;;5036630;28;20290;-81
2021/12/23 13:33:45;;;;;;;44.78;23.48;;;1.60;99.90;;;;;;5015487;28;20170;-81
2021/12/23 13:36:16;;;;;;;50.20;20.75;;;1.60;99.90;;;;;;5033117;28;20664;-80
2021/12/23 13:38:42;;;;;;;54.08;22.38;;;1.60;99.90;;;;;;5032634;28;20166;-81
2021/12/23 13:41:21;;;;;;;44.77;22.30;;;1.60;99.90;;;;;;5035566;28;20213;-81
2021/12/23 13:43:47;;;;;;;53.25;24.33;;;1.40;99.90;;;;;;5030514;28;20178;-81
2021/12/23 13:46:14;;;;;;;47.08;24.23;;;1.40;99.90;;;;;;5034235;28;20174;-81
2021/12/23 13:48:48;;;;;;;51.45;23.35;;;1.40;99.90;;;;;;5024876;28;20545;-82
2021/12/23 13:51:14;;;;;;;53.97;23.90;;;1.50;99.90;;;;;;5037252;28;20493;-81